Have a Safe July 4th! 

Flight Track Log - Related Links

Times and Time Zones

All times are in EDT time to prevent confusion due to time zone crossing. See the AAY136 flight status page for this flight to view local times or setup timezone preferences in your user account.

Time Position Orientation Groundspeed Altitude Reporting Facility
EDT Latitude Longitude Course Direction KTS MPH feet Rate Location/Type
Wed 01:29:55 PM 33.3000 -111.6500 140° Southeast 183 211 1,700  Level Phoenix TRACON
Wed 01:30:50 PM 33.2667 -111.6167 140° Southeast 170 196 3,500 1,590 Climbing Phoenix TRACON
Wed 01:31:18 PM 33.2564 -111.5997 126° Southeast 177 204 3,900 2,000 Climbing Albuquerque Center
Wed 01:32:20 PM 33.2678 -111.5328 78° East 244 281 6,500 2,661 Climbing Albuquerque Center
Wed 01:33:22 PM 33.3558 -111.5144 10° North 269 310 9,400 2,274 Climbing Albuquerque Center
Wed 01:34:24 PM 33.4428 -111.5375 348° North 319 367 11,200 2,129 Climbing Albuquerque Center
Wed 01:35:26 PM 33.5397 -111.5672 346° North 355 409 13,800 2,516 Climbing Albuquerque Center
Wed 01:36:28 PM 33.6381 -111.5983 345° North 363 418 16,400 2,419 Climbing Albuquerque Center
Wed 01:37:30 PM 33.7386 -111.6294 346° North 372 428 18,800 2,371 Climbing Albuquerque Center
Wed 01:38:32 PM 33.8625 -111.6689 345° North 383 441 21,300 2,032 Climbing Albuquerque Center
Wed 01:39:34 PM 33.9703 -111.6969 348° North 397 457 23,000 1,694 Climbing Albuquerque Center
Wed 01:40:36 PM 34.0978 -111.6983 359° North 427 491 24,800 1,500 Climbing Albuquerque Center
Wed 01:41:38 PM 34.2019 -111.6706 12° North 446 513 26,100 1,355 Climbing Albuquerque Center
Wed 01:42:40 PM 34.3242 -111.6219 18° North 461 531 27,600 1,403 Climbing Albuquerque Center
Wed 01:43:42 PM 34.4711 -111.5564 20° North 467 537 29,000 1,016 Climbing Albuquerque Center
Wed 01:44:44 PM 34.5831 -111.4644 34° Northeast 482 555 29,700 968 Climbing Albuquerque Center
Wed 01:45:46 PM 34.6808 -111.3419 46° Northeast 498 573 31,000 1,210 Climbing Albuquerque Center
Wed 01:46:48 PM 34.7703 -111.2119 50° Northeast 503 579 32,200 1,113 Climbing Albuquerque Center
Wed 01:47:50 PM 34.8628 -111.0817 49° Northeast 506 582 33,300 1,065 Climbing Albuquerque Center
Wed 01:48:52 PM 34.9686 -110.9731 40° Northeast 501 577 34,400 1,016 Climbing Albuquerque Center
Wed 01:49:54 PM 35.1003 -110.8506 37° Northeast 501 577 35,400 677 Climbing Albuquerque Center
Wed 01:50:56 PM 35.2083 -110.7486 38° Northeast 508 585 35,800 774 Climbing Albuquerque Center
Wed 01:51:58 PM 35.3356 -110.6300 37° Northeast 513 590 37,000 581 Climbing Albuquerque Center
Wed 01:53:00 PM 35.4422 -110.5297 37° Northeast 508 585 37,000  Level Albuquerque Center
Wed 01:54:02 PM 35.5642 -110.4117 38° Northeast 501 577 37,000  Level Albuquerque Center
Wed 01:55:04 PM 35.6697 -110.3136 37° Northeast 498 573 37,000  Level Albuquerque Center
Wed 01:56:07 PM 35.7908 -110.1964 38° Northeast 495 570 37,000  Level Albuquerque Center
Wed 01:57:08 PM 35.8956 -110.0967 38° Northeast 495 570 37,000  Level Albuquerque Center
Wed 01:57:38 PM 35.9486 -110.0489 36° Northeast 494 568 37,000  Level Denver Center
Wed 01:58:40 PM 36.0694 -109.9314 38° Northeast 494 568 37,000  Level Denver Center
Wed 01:59:42 PM 36.1736 -109.8311 38° Northeast 494 568 37,000 48 Level Denver Center
Wed 02:00:44 PM 36.2778 -109.7306 38° Northeast 493 567 37,100  Climbing Denver Center
Wed 02:01:58 PM 36.3994 -109.6128 38° Northeast 494 568 37,000 -44 Descending Denver Center
Wed 02:03:00 PM 36.5372 -109.4769 38° Northeast 493 567 37,000  Level Denver Center
Wed 02:04:02 PM 36.6422 -109.3750 38° Northeast 496 571 37,000  Level Denver Center
Wed 02:05:04 PM 36.7467 -109.2722 38° Northeast 499 574 37,000  Level Denver Center
Wed 02:06:06 PM 36.8678 -109.1528 38° Northeast 496 571 37,000  Level Denver Center
Wed 02:07:08 PM 36.9714 -109.0483 39° Northeast 497 572 37,000  Level Denver Center
Wed 02:08:10 PM 37.0928 -108.9297 38° Northeast 495 570 37,000  Level Denver Center
Wed 02:09:12 PM 37.1961 -108.8250 39° Northeast 497 572 37,000  Level Denver Center
Wed 02:10:13 PM 37.3164 -108.7053 38° Northeast 493 567 37,000  Level Denver Center
Wed 02:11:15 PM 37.4206 -108.6011 38° Northeast 497 572 37,000  Level Denver Center
Wed 02:12:17 PM 37.5061 -108.5119 40° Northeast 499 574 37,000 48 Level Denver Center
Wed 02:13:19 PM 37.6450 -108.3708 39° Northeast 501 577 37,100  Climbing Denver Center
Wed 02:14:21 PM 37.7472 -108.2672 39° Northeast 494 568 37,000 -48 Descending Denver Center
Wed 02:15:23 PM 37.8667 -108.1464 39° Northeast 490 564 37,000  Level Denver Center
Wed 02:16:25 PM 37.9692 -108.0431 38° Northeast 491 565 37,000  Level Denver Center
Wed 02:17:27 PM 38.0881 -107.9172 40° Northeast 493 567 37,000  Level Denver Center
Wed 02:18:29 PM 38.1897 -107.8100 40° Northeast 495 570 37,000  Level Denver Center
Wed 02:19:31 PM 38.3061 -107.6903 39° Northeast 490 564 37,000  Level Denver Center
Wed 02:20:33 PM 38.4061 -107.5856 39° Northeast 489 563 37,000  Level Denver Center
Wed 02:21:35 PM 38.5253 -107.4603 39° Northeast 492 566 37,000  Level Denver Center
Wed 02:22:37 PM 38.6267 -107.3556 39° Northeast 492 566 37,000  Level Denver Center
Wed 02:23:39 PM 38.7444 -107.2294 40° Northeast 494 568 37,000  Level Denver Center
Wed 02:24:41 PM 38.8392 -107.1283 40° Northeast 496 571 37,000  Level Denver Center
Wed 02:25:43 PM 38.9639 -106.9958 40° Northeast 498 573 37,000  Level Denver Center
Wed 02:26:45 PM 39.0644 -106.8883 40° Northeast 495 570 37,000  Level Denver Center
Wed 02:27:47 PM 39.1806 -106.7644 40° Northeast 490 564 37,000  Level Denver Center
Wed 02:28:49 PM 39.2797 -106.6567 40° Northeast 489 563 37,000  Level Denver Center
Wed 02:29:51 PM 39.3994 -106.5289 39° Northeast 497 572 37,000  Level Denver Center
Wed 02:30:53 PM 39.4881 -106.4308 40° Northeast 495 570 37,000 48 Level Denver Center
Wed 02:31:55 PM 39.6153 -106.2911 40° Northeast 500 575 37,100  Climbing Denver Center
Wed 02:32:57 PM 39.7214 -106.1753 40° Northeast 496 571 37,000 -48 Descending Denver Center
Wed 02:33:59 PM 39.8261 -106.0586 41° Northeast 491 565 37,000  Level Denver Center
Wed 02:35:01 PM 39.9311 -105.9425 40° Northeast 490 564 37,000  Level Denver Center
Wed 02:36:02 PM 40.0342 -105.8283 40° Northeast 482 555 37,000  Level Denver Center
Wed 02:37:04 PM 40.1381 -105.7103 41° Northeast 488 562 37,000 48 Level Denver Center
Wed 02:38:06 PM 40.2403 -105.5944 41° Northeast 482 555 37,100 48 Climbing Denver Center
Wed 02:39:08 PM 40.3444 -105.4783 40° Northeast 484 557 37,100 -48 Level Denver Center
Wed 02:40:10 PM 40.4636 -105.3442 41° Northeast 479 551 37,000 -48 Descending Denver Center
Wed 02:41:12 PM 40.5650 -105.2269 41° Northeast 479 551 37,000  Level Denver Center
Wed 02:42:14 PM 40.6667 -105.1119 41° Northeast 478 550 37,000  Level Denver Center
Wed 02:43:16 PM 40.7683 -104.9978 40° Northeast 474 545 37,000  Level Denver Center
Wed 02:44:18 PM 40.8700 -104.8778 42° Northeast 481 554 37,000 48 Level Denver Center
Wed 02:45:20 PM 40.9725 -104.7578 41° Northeast 485 558 37,100 48 Climbing Denver Center
Wed 02:46:22 PM 41.0819 -104.6314 41° Northeast 483 556 37,100 -48 Level Denver Center
Wed 02:47:24 PM 41.1761 -104.5219 41° Northeast 473 544 37,000 -49 Descending Denver Center
Wed 02:48:25 PM 41.2847 -104.3975 41° Northeast 461 531 37,000  Level Denver Center
Wed 02:49:27 PM 41.3761 -104.2914 41° Northeast 457 526 37,000  Level Denver Center
Wed 02:50:29 PM 41.4836 -104.1625 42° Northeast 464 534 37,000  Level Denver Center
Wed 02:51:31 PM 41.5772 -104.0514 42° Northeast 470 541 37,000 48 Level Denver Center
Wed 02:52:33 PM 41.6856 -103.9219 42° Northeast 469 540 37,100  Climbing Denver Center
Wed 02:53:47 PM 41.7775 -103.8128 42° Northeast 464 534 37,000 -88 Descending Denver Center
Wed 02:54:49 PM 41.8972 -103.6686 42° Northeast 455 524 36,900  Descending Denver Center
Wed 02:55:51 PM 41.9881 -103.5600 42° Northeast 457 526 37,000 48 Climbing Denver Center
Wed 02:56:53 PM 42.0931 -103.4331 42° Northeast 458 527 37,000 48 Level Denver Center
Wed 02:57:55 PM 42.1822 -103.3225 43° Northeast 458 527 37,100  Climbing Denver Center
Wed 02:58:57 PM 42.2853 -103.1964 42° Northeast 449 517 37,000 -48 Descending Denver Center
Wed 02:59:59 PM 42.3733 -103.0881 42° Northeast 448 516 37,000  Level Denver Center
Wed 03:01:01 PM 42.4764 -102.9608 42° Northeast 450 518 37,000  Level Denver Center
Wed 03:02:02 PM 42.5656 -102.8500 42° Northeast 454 522 37,000  Level Denver Center
Wed 03:03:04 PM 42.6700 -102.7208 42° Northeast 456 525 37,000  Level Denver Center
Wed 03:04:06 PM 42.7589 -102.6103 42° Northeast 455 524 37,000  Level Denver Center
Wed 03:05:08 PM 42.8456 -102.4994 43° Northeast 451 519 37,000  Level Denver Center
Wed 03:06:10 PM 42.9506 -102.3700 42° Northeast 453 521 37,000  Level Denver Center
Wed 03:07:12 PM 43.0361 -102.2600 43° Northeast 445 512 37,000  Level Denver Center
Wed 03:08:14 PM 43.1392 -102.1314 42° Northeast 449 517 37,000  Level Denver Center
Wed 03:09:15 PM 43.2256 -102.0181 44° Northeast 450 518 37,000  Level Denver Center
Wed 03:10:17 PM 43.3286 -101.8861 43° Northeast 453 521 37,000 48 Level Denver Center
Wed 03:11:19 PM 43.4261 -101.7592 43° Northeast 455 524 37,100  Climbing Denver Center
Wed 03:12:21 PM 43.5181 -101.6394 43° Northeast 455 524 37,000 -48 Descending Denver Center
Wed 03:13:23 PM 43.6097 -101.5214 43° Northeast 453 521 37,000  Level Denver Center
Wed 03:14:25 PM 43.7006 -101.4022 43° Northeast 450 518 37,000  Level Denver Center
Wed 03:14:56 PM 43.7561 -101.3306 43° Northeast 452 520 37,000  Level Minneapolis Center
Wed 03:15:58 PM 43.8458 -101.2111 44° Northeast 451 519 37,000  Level Minneapolis Center
Wed 03:17:00 PM 43.9369 -101.0922 43° Northeast 450 518 37,000  Level Minneapolis Center
Wed 03:18:01 PM 44.0283 -100.9706 44° Northeast 452 520 37,000  Level Minneapolis Center
Wed 03:19:03 PM 44.1192 -100.8489 44° Northeast 454 522 37,000  Level Minneapolis Center
Wed 03:20:05 PM 44.2094 -100.7264 44° Northeast 454 522 37,000  Level Minneapolis Center
Wed 03:21:07 PM 44.3019 -100.6028 44° Northeast 459 528 37,000  Level Minneapolis Center
Wed 03:22:08 PM 44.4114 -100.4561 44° Northeast 457 526 37,000  Level Minneapolis Center
Wed 03:23:10 PM 44.5025 -100.3328 44° Northeast 456 525 37,000  Level Minneapolis Center
Wed 03:24:12 PM 44.5925 -100.2086 44° Northeast 456 525 37,000  Level Minneapolis Center
Wed 03:25:14 PM 44.6828 -100.0858 44° Northeast 455 524 37,000  Level Minneapolis Center
Wed 03:26:15 PM 44.7728 -99.9633 44° Northeast 454 522 37,000  Level Minneapolis Center
Wed 03:27:17 PM 44.8739 -99.8231 44° Northeast 456 525 37,000  Level Minneapolis Center
Wed 03:28:19 PM 44.9669 -99.6931 45° Northeast 451 519 37,000  Level Minneapolis Center
Wed 03:29:21 PM 45.0553 -99.5697 45° Northeast 452 520 37,000  Level Minneapolis Center
Wed 03:30:23 PM 45.1442 -99.4428 45° Northeast 456 525 37,000  Level Minneapolis Center
Wed 03:31:24 PM 45.2336 -99.3158 45° Northeast 457 526 37,000  Level Minneapolis Center
Wed 03:32:26 PM 45.3075 -99.2158 44° Northeast 460 529 37,000 -88 Level Minneapolis Center
Wed 03:33:40 PM 45.4294 -99.0372 46° Northeast 451 519 36,800 -662 Descending Minneapolis Center
Wed 03:34:42 PM 45.5353 -98.8858 45° Northeast 451 519 35,500 -1,645 Descending Minneapolis Center
Wed 03:35:44 PM 45.6253 -98.7644 43° Northeast 448 516 33,400 -2,146 Descending Minneapolis Center
Wed 03:36:45 PM 45.7083 -98.6444 45° Northeast 432 497 31,100 -2,195 Descending Minneapolis Center
Wed 03:37:47 PM 45.7931 -98.5322 43° Northeast 420 483 28,900 -2,081 Descending Minneapolis Center
Wed 03:38:49 PM 45.8756 -98.4217 43° Northeast 410 472 26,800 -1,935 Descending Minneapolis Center
Wed 03:39:51 PM 45.9550 -98.3122 44° Northeast 401 461 24,900 -2,032 Descending Minneapolis Center
Wed 03:40:53 PM 46.0469 -98.1842 44° Northeast 388 447 22,600 -1,951 Descending Minneapolis Center
Wed 03:41:54 PM 46.1128 -98.0900 45° Northeast 381 438 20,900 -1,659 Descending Minneapolis Center
Wed 03:42:56 PM 46.1864 -97.9872 44° Northeast 371 427 19,200 -1,597 Descending Minneapolis Center
Wed 03:43:58 PM 46.2597 -97.8850 44° Northeast 368 423 17,600 -1,742 Descending Minneapolis Center
Wed 03:45:00 PM 46.3458 -97.7644 44° Northeast 362 417 15,600 -1,790 Descending Minneapolis Center
Wed 03:46:02 PM 46.4189 -97.6611 44° Northeast 360 414 13,900 -1,659 Descending Minneapolis Center
Wed 03:47:03 PM 46.4917 -97.5589 44° Northeast 350 403 12,200 -1,610 Descending Minneapolis Center
Wed 03:48:05 PM 46.5628 -97.4581 44° Northeast 340 391 10,600 -1,161 Descending Minneapolis Center
Wed 03:49:07 PM 46.6225 -97.3731 44° Northeast 314 361 9,800 -1,113 Descending Minneapolis Center
Wed 03:50:09 PM 46.6814 -97.2881 45° Northeast 285 328 8,300 -1,512 Descending Minneapolis Center
Wed 03:51:10 PM 46.7400 -97.2044 44° Northeast 283 326 6,700 -1,561 Descending Minneapolis Center
Wed 03:52:12 PM 46.7975 -97.1219 44° Northeast 279 321 5,100 -1,500 Descending Minneapolis Center
Wed 03:53:14 PM 46.8531 -97.0425 44° Northeast 268 308 3,600 -1,210 Descending Minneapolis Center
Wed 03:54:16 PM 46.9025 -96.9700 45° Northeast 263 303 2,600 -532 Descending Minneapolis Center
Wed 03:55:18 PM 46.9469 -96.9075 44° Northeast 207 238 2,500 -146 Descending Minneapolis Center
Wed 03:56:19 PM 46.9903 -96.8597 37° Northeast 183 211 2,300 -341 Descending Minneapolis Center
Wed 03:57:21 PM 46.9711 -96.8156 122° Southeast 154 177 1,800 -484 Descending Minneapolis Center
Wed 03:59:00 PM 46.9167 -96.8000 46° Northeast  Level FlightAware Approximate
Wed 04:06:00 PM 46.9207 -96.8158 46° Northeast  Level Estimated

Login

Don't have an account? Register now (free) for customized features, flight alerts, and more!